Terminal Aerodrome Forecast
Issued by NWS Twin Cities, MN

Home | Current Version | Previous Version | Graphics & Text | Print | Product List | Glossary On
Versions: 1 2 3 4 5 6 7 8 9 10 11 12
078
FTUS43 KMPX 010520
TAFEAU
TAF
KEAU 010520Z 0106/0206 33006KT P6SM -RA SCT007 OVC035
     FM010800 29005KT 6SM -RASN BR BKN007 OVC015
     FM011400 31009KT P6SM VCSH OVC010
     FM011800 30008KT P6SM OVC015
     FM020100 29004KT P6SM SCT015 OVC035=

USA.gov is the U.S. government's official web portal to all federal, state and local government web resources and services.